sensor_id;sensor_type;location;lat;lon;timestamp;temperature;humidity
26803;DHT22;14378;51.796;5.808;2024-01-16T00:01:51;1.20;99.90
26803;DHT22;14378;51.796;5.808;2024-01-16T00:03:52;1.20;99.90
26803;DHT22;14378;51.796;5.808;2024-01-16T00:05:53;1.20;99.90
26803;DHT22;14378;51.796;5.808;2024-01-16T00:07:53;1.20;99.90
26803;DHT22;14378;51.796;5.808;2024-01-16T00:09:54;1.20;99.90
26803;DHT22;14378;51.796;5.808;2024-01-16T00:11:56;1.20;99.90
26803;DHT22;14378;51.796;5.808;2024-01-16T00:13:57;1.10;99.90
26803;DHT22;14378;51.796;5.808;2024-01-16T00:15:58;1.10;99.90
26803;DHT22;14378;51.796;5.808;2024-01-16T00:17:59;1.10;99.90
26803;DHT22;14378;51.796;5.808;2024-01-16T00:20:00;1.10;99.90
26803;DHT22;14378;51.796;5.808;2024-01-16T00:22:01;1.10;99.90
26803;DHT22;14378;51.796;5.808;2024-01-16T00:24:03;1.10;99.90
26803;DHT22;14378;51.796;5.808;2024-01-16T00:26:05;1.10;99.90
26803;DHT22;14378;51.796;5.808;2024-01-16T00:28:06;1.20;99.90
26803;DHT22;14378;51.796;5.808;2024-01-16T00:30:07;1.20;99.90
26803;DHT22;14378;51.796;5.808;2024-01-16T00:32:08;1.20;99.90
26803;DHT22;14378;51.796;5.808;2024-01-16T00:34:09;1.20;99.90
26803;DHT22;14378;51.796;5.808;2024-01-16T00:36:10;1.20;99.90
26803;DHT22;14378;51.796;5.808;2024-01-16T00:38:11;1.20;99.90
26803;DHT22;14378;51.796;5.808;2024-01-16T00:40:11;1.10;99.90
26803;DHT22;14378;51.796;5.808;2024-01-16T00:42:13;1.10;99.90
26803;DHT22;14378;51.796;5.808;2024-01-16T00:44:16;1.10;99.90
26803;DHT22;14378;51.796;5.808;2024-01-16T00:46:16;1.10;99.90
26803;DHT22;14378;51.796;5.808;2024-01-16T00:48:17;1.10;99.90
26803;DHT22;14378;51.796;5.808;2024-01-16T00:50:20;1.00;99.90
26803;DHT22;14378;51.796;5.808;2024-01-16T00:52:21;1.00;99.90
26803;DHT22;14378;51.796;5.808;2024-01-16T00:54:21;1.00;99.90
26803;DHT22;14378;51.796;5.808;2024-01-16T00:56:22;1.00;99.90
26803;DHT22;14378;51.796;5.808;2024-01-16T00:58:24;1.00;99.90
26803;DHT22;14378;51.796;5.808;2024-01-16T01:00:24;1.10;99.90
26803;DHT22;14378;51.796;5.808;2024-01-16T01:02:26;1.10;99.90
26803;DHT22;14378;51.796;5.808;2024-01-16T01:04:27;1.10;99.90
26803;DHT22;14378;51.796;5.808;2024-01-16T01:06:28;1.10;99.90
26803;DHT22;14378;51.796;5.808;2024-01-16T01:08:29;1.10;99.90
26803;DHT22;14378;51.796;5.808;2024-01-16T01:10:30;1.10;99.90
26803;DHT22;14378;51.796;5.808;2024-01-16T01:12:31;1.10;99.90
26803;DHT22;14378;51.796;5.808;2024-01-16T01:14:32;1.10;99.90
26803;DHT22;14378;51.796;5.808;2024-01-16T01:16:35;1.10;99.90
26803;DHT22;14378;51.796;5.808;2024-01-16T01:18:36;1.20;99.90
26803;DHT22;14378;51.796;5.808;2024-01-16T01:20:37;1.20;99.90
26803;DHT22;14378;51.796;5.808;2024-01-16T01:22:38;1.30;99.90
26803;DHT22;14378;51.796;5.808;2024-01-16T01:24:39;1.30;99.90
26803;DHT22;14378;51.796;5.808;2024-01-16T01:26:43;1.30;99.90
26803;DHT22;14378;51.796;5.808;2024-01-16T01:28:44;1.30;99.90
26803;DHT22;14378;51.796;5.808;2024-01-16T01:30:45;1.30;99.90
26803;DHT22;14378;51.796;5.808;2024-01-16T01:32:45;1.30;99.90
26803;DHT22;14378;51.796;5.808;2024-01-16T01:34:46;1.30;99.90
26803;DHT22;14378;51.796;5.808;2024-01-16T01:36:47;1.30;99.90
26803;DHT22;14378;51.796;5.808;2024-01-16T01:38:48;1.30;99.90
26803;DHT22;14378;51.796;5.808;2024-01-16T01:40:49;1.30;99.90
26803;DHT22;14378;51.796;5.808;2024-01-16T01:42:50;1.30;99.90
26803;DHT22;14378;51.796;5.808;2024-01-16T01:44:51;1.30;99.90
26803;DHT22;14378;51.796;5.808;2024-01-16T01:46:54;1.30;99.90
26803;DHT22;14378;51.796;5.808;2024-01-16T01:48:56;1.30;99.90
26803;DHT22;14378;51.796;5.808;2024-01-16T01:50:58;1.30;99.90
26803;DHT22;14378;51.796;5.808;2024-01-16T01:52:59;1.20;99.90
26803;DHT22;14378;51.796;5.808;2024-01-16T01:55:02;1.30;99.90
26803;DHT22;14378;51.796;5.808;2024-01-16T01:57:04;1.30;99.90
26803;DHT22;14378;51.796;5.808;2024-01-16T01:59:06;1.30;99.90
26803;DHT22;14378;51.796;5.808;2024-01-16T02:01:14;1.30;99.90
26803;DHT22;14378;51.796;5.808;2024-01-16T02:03:15;1.30;99.90
26803;DHT22;14378;51.796;5.808;2024-01-16T02:05:16;1.30;99.90
26803;DHT22;14378;51.796;5.808;2024-01-16T02:07:17;1.30;99.90
26803;DHT22;14378;51.796;5.808;2024-01-16T02:09:18;1.30;99.90
26803;DHT22;14378;51.796;5.808;2024-01-16T02:11:19;1.30;99.90
26803;DHT22;14378;51.796;5.808;2024-01-16T02:13:22;1.30;99.90
26803;DHT22;14378;51.796;5.808;2024-01-16T02:15:24;1.30;99.90
26803;DHT22;14378;51.796;5.808;2024-01-16T02:17:25;1.30;99.90
26803;DHT22;14378;51.796;5.808;2024-01-16T02:19:26;1.30;99.90
26803;DHT22;14378;51.796;5.808;2024-01-16T02:23:33;1.40;99.90
26803;DHT22;14378;51.796;5.808;2024-01-16T02:25:39;1.40;99.90
26803;DHT22;14378;51.796;5.808;2024-01-16T02:27:40;1.40;99.90
26803;DHT22;14378;51.796;5.808;2024-01-16T02:29:44;1.40;99.90
26803;DHT22;14378;51.796;5.808;2024-01-16T02:31:45;1.30;99.90
26803;DHT22;14378;51.796;5.808;2024-01-16T02:33:46;1.30;99.90
26803;DHT22;14378;51.796;5.808;2024-01-16T02:35:47;1.30;99.90
26803;DHT22;14378;51.796;5.808;2024-01-16T02:37:48;1.30;99.90
26803;DHT22;14378;51.796;5.808;2024-01-16T02:39:48;1.30;99.90
26803;DHT22;14378;51.796;5.808;2024-01-16T02:41:50;1.40;99.90
26803;DHT22;14378;51.796;5.808;2024-01-16T02:43:51;1.30;99.90
26803;DHT22;14378;51.796;5.808;2024-01-16T02:45:55;1.30;99.90
26803;DHT22;14378;51.796;5.808;2024-01-16T02:47:56;1.40;99.90
26803;DHT22;14378;51.796;5.808;2024-01-16T02:49:59;1.40;99.90
26803;DHT22;14378;51.796;5.808;2024-01-16T02:52:06;1.30;99.90
26803;DHT22;14378;51.796;5.808;2024-01-16T02:54:10;1.40;99.90
26803;DHT22;14378;51.796;5.808;2024-01-16T02:56:20;1.40;99.90
26803;DHT22;14378;51.796;5.808;2024-01-16T02:58:21;1.40;99.90
26803;DHT22;14378;51.796;5.808;2024-01-16T03:00:22;1.40;99.90
26803;DHT22;14378;51.796;5.808;2024-01-16T03:02:23;1.40;99.90
26803;DHT22;14378;51.796;5.808;2024-01-16T03:04:24;1.40;99.90
26803;DHT22;14378;51.796;5.808;2024-01-16T03:06:25;1.40;99.90
26803;DHT22;14378;51.796;5.808;2024-01-16T03:08:26;1.40;99.90
26803;DHT22;14378;51.796;5.808;2024-01-16T03:10:27;1.40;99.90
26803;DHT22;14378;51.796;5.808;2024-01-16T03:12:28;1.40;99.90
26803;DHT22;14378;51.796;5.808;2024-01-16T03:14:29;1.50;99.90
26803;DHT22;14378;51.796;5.808;2024-01-16T03:16:35;1.40;99.90
26803;DHT22;14378;51.796;5.808;2024-01-16T03:18:36;1.50;99.90
26803;DHT22;14378;51.796;5.808;2024-01-16T03:20:37;1.50;99.90
26803;DHT22;14378;51.796;5.808;2024-01-16T03:22:38;1.60;99.90
26803;DHT22;14378;51.796;5.808;2024-01-16T03:24:40;1.50;99.90
26803;DHT22;14378;51.796;5.808;2024-01-16T03:26:41;1.50;99.90
26803;DHT22;14378;51.796;5.808;2024-01-16T03:28:43;1.50;99.90
26803;DHT22;14378;51.796;5.808;2024-01-16T03:30:47;1.60;99.90
26803;DHT22;14378;51.796;5.808;2024-01-16T03:32:49;1.60;99.90
26803;DHT22;14378;51.796;5.808;2024-01-16T03:34:50;1.60;99.90
26803;DHT22;14378;51.796;5.808;2024-01-16T03:36:50;1.60;99.90
26803;DHT22;14378;51.796;5.808;2024-01-16T03:38:51;1.60;99.90
26803;DHT22;14378;51.796;5.808;2024-01-16T03:40:52;1.60;99.90
26803;DHT22;14378;51.796;5.808;2024-01-16T03:42:53;1.60;99.90
26803;DHT22;14378;51.796;5.808;2024-01-16T03:44:55;1.60;99.90
26803;DHT22;14378;51.796;5.808;2024-01-16T03:46:57;1.60;99.90
26803;DHT22;14378;51.796;5.808;2024-01-16T03:48:57;1.60;99.90
26803;DHT22;14378;51.796;5.808;2024-01-16T03:50:58;1.60;99.90
26803;DHT22;14378;51.796;5.808;2024-01-16T03:52:59;1.60;99.90
26803;DHT22;14378;51.796;5.808;2024-01-16T03:55:00;1.60;99.90
26803;DHT22;14378;51.796;5.808;2024-01-16T03:57:01;1.60;99.90
26803;DHT22;14378;51.796;5.808;2024-01-16T03:59:02;1.60;99.90
26803;DHT22;14378;51.796;5.808;2024-01-16T04:01:04;1.70;99.90
26803;DHT22;14378;51.796;5.808;2024-01-16T04:03:05;1.70;99.90
26803;DHT22;14378;51.796;5.808;2024-01-16T04:05:08;1.70;99.90
26803;DHT22;14378;51.796;5.808;2024-01-16T04:07:08;1.70;99.90
26803;DHT22;14378;51.796;5.808;2024-01-16T04:09:09;1.70;99.90
26803;DHT22;14378;51.796;5.808;2024-01-16T04:11:14;1.70;99.90
26803;DHT22;14378;51.796;5.808;2024-01-16T04:13:15;1.70;99.90
26803;DHT22;14378;51.796;5.808;2024-01-16T04:15:16;1.70;99.90
26803;DHT22;14378;51.796;5.808;2024-01-16T04:17:17;1.70;99.90
26803;DHT22;14378;51.796;5.808;2024-01-16T04:19:18;1.80;99.90
26803;DHT22;14378;51.796;5.808;2024-01-16T04:21:19;1.80;99.90
26803;DHT22;14378;51.796;5.808;2024-01-16T04:23:20;1.90;99.90
26803;DHT22;14378;51.796;5.808;2024-01-16T04:25:21;1.90;99.90
26803;DHT22;14378;51.796;5.808;2024-01-16T04:27:22;1.90;99.90
26803;DHT22;14378;51.796;5.808;2024-01-16T04:29:23;2.00;99.90
26803;DHT22;14378;51.796;5.808;2024-01-16T04:31:24;2.00;99.90
26803;DHT22;14378;51.796;5.808;2024-01-16T04:33:25;2.00;99.90
26803;DHT22;14378;51.796;5.808;2024-01-16T04:35:26;2.00;99.90
26803;DHT22;14378;51.796;5.808;2024-01-16T04:37:26;2.00;99.90
26803;DHT22;14378;51.796;5.808;2024-01-16T04:39:33;2.00;99.90
26803;DHT22;14378;51.796;5.808;2024-01-16T04:41:34;1.90;99.90
26803;DHT22;14378;51.796;5.808;2024-01-16T04:43:35;1.90;99.90
26803;DHT22;14378;51.796;5.808;2024-01-16T04:45:36;1.90;99.90
26803;DHT22;14378;51.796;5.808;2024-01-16T04:47:36;1.90;99.90
26803;DHT22;14378;51.796;5.808;2024-01-16T04:49:37;1.90;99.90
26803;DHT22;14378;51.796;5.808;2024-01-16T04:51:41;1.80;99.90
26803;DHT22;14378;51.796;5.808;2024-01-16T04:53:42;1.80;99.90
26803;DHT22;14378;51.796;5.808;2024-01-16T04:55:43;1.80;99.90
26803;DHT22;14378;51.796;5.808;2024-01-16T04:57:44;1.80;99.90
26803;DHT22;14378;51.796;5.808;2024-01-16T04:59:45;1.80;99.90
26803;DHT22;14378;51.796;5.808;2024-01-16T05:01:46;1.70;99.90
26803;DHT22;14378;51.796;5.808;2024-01-16T05:03:46;1.70;99.90
26803;DHT22;14378;51.796;5.808;2024-01-16T05:05:47;1.70;99.90
26803;DHT22;14378;51.796;5.808;2024-01-16T05:07:48;1.70;99.90
26803;DHT22;14378;51.796;5.808;2024-01-16T05:09:49;1.80;99.90
26803;DHT22;14378;51.796;5.808;2024-01-16T05:11:50;1.80;99.90
26803;DHT22;14378;51.796;5.808;2024-01-16T05:13:51;1.80;99.90
26803;DHT22;14378;51.796;5.808;2024-01-16T05:15:57;1.70;99.90
26803;DHT22;14378;51.796;5.808;2024-01-16T05:17:58;1.80;99.90
26803;DHT22;14378;51.796;5.808;2024-01-16T05:19:59;1.70;99.90
26803;DHT22;14378;51.796;5.808;2024-01-16T05:22:00;1.70;99.90
26803;DHT22;14378;51.796;5.808;2024-01-16T05:24:02;1.80;99.90
26803;DHT22;14378;51.796;5.808;2024-01-16T05:26:04;1.80;99.90
26803;DHT22;14378;51.796;5.808;2024-01-16T05:28:05;1.80;99.90
26803;DHT22;14378;51.796;5.808;2024-01-16T05:30:06;1.80;99.90
26803;DHT22;14378;51.796;5.808;2024-01-16T05:32:08;1.80;99.90
26803;DHT22;14378;51.796;5.808;2024-01-16T05:34:09;1.80;99.90
26803;DHT22;14378;51.796;5.808;2024-01-16T05:36:17;1.80;99.90
26803;DHT22;14378;51.796;5.808;2024-01-16T05:38:18;1.80;99.90
26803;DHT22;14378;51.796;5.808;2024-01-16T05:40:18;1.80;99.90
26803;DHT22;14378;51.796;5.808;2024-01-16T05:42:19;1.80;99.90
26803;DHT22;14378;51.796;5.808;2024-01-16T05:44:21;1.90;99.90
26803;DHT22;14378;51.796;5.808;2024-01-16T05:46:22;1.90;99.90
26803;DHT22;14378;51.796;5.808;2024-01-16T05:48:23;1.90;99.90
26803;DHT22;14378;51.796;5.808;2024-01-16T05:50:23;1.90;99.90
26803;DHT22;14378;51.796;5.808;2024-01-16T05:52:24;1.80;99.90
26803;DHT22;14378;51.796;5.808;2024-01-16T05:54:25;1.80;99.90
26803;DHT22;14378;51.796;5.808;2024-01-16T05:56:26;1.80;99.90
26803;DHT22;14378;51.796;5.808;2024-01-16T05:58:27;1.80;99.90
26803;DHT22;14378;51.796;5.808;2024-01-16T06:00:28;1.80;99.90
26803;DHT22;14378;51.796;5.808;2024-01-16T06:02:29;1.80;99.90
26803;DHT22;14378;51.796;5.808;2024-01-16T06:04:31;1.80;99.90
26803;DHT22;14378;51.796;5.808;2024-01-16T06:06:32;1.80;99.90
26803;DHT22;14378;51.796;5.808;2024-01-16T06:08:34;1.80;99.90
26803;DHT22;14378;51.796;5.808;2024-01-16T06:10:34;1.70;99.90
26803;DHT22;14378;51.796;5.808;2024-01-16T06:12:35;1.70;99.90
26803;DHT22;14378;51.796;5.808;2024-01-16T06:14:41;1.80;99.90
26803;DHT22;14378;51.796;5.808;2024-01-16T06:16:42;1.80;99.90
26803;DHT22;14378;51.796;5.808;2024-01-16T06:18:43;1.80;99.90
26803;DHT22;14378;51.796;5.808;2024-01-16T06:20:44;1.80;99.90
26803;DHT22;14378;51.796;5.808;2024-01-16T06:22:45;1.70;99.90
26803;DHT22;14378;51.796;5.808;2024-01-16T06:24:46;1.80;99.90
26803;DHT22;14378;51.796;5.808;2024-01-16T06:26:47;1.70;99.90
26803;DHT22;14378;51.796;5.808;2024-01-16T06:28:47;1.80;99.90
26803;DHT22;14378;51.796;5.808;2024-01-16T06:30:48;1.80;99.90
26803;DHT22;14378;51.796;5.808;2024-01-16T06:32:49;1.80;99.90
26803;DHT22;14378;51.796;5.808;2024-01-16T06:34:50;1.80;99.90
26803;DHT22;14378;51.796;5.808;2024-01-16T06:36:52;1.80;99.90
26803;DHT22;14378;51.796;5.808;2024-01-16T06:38:53;1.80;99.90
26803;DHT22;14378;51.796;5.808;2024-01-16T06:40:54;1.80;99.90
26803;DHT22;14378;51.796;5.808;2024-01-16T06:42:55;1.80;99.90
26803;DHT22;14378;51.796;5.808;2024-01-16T06:44:56;1.80;99.90
26803;DHT22;14378;51.796;5.808;2024-01-16T06:46:57;1.70;99.90
26803;DHT22;14378;51.796;5.808;2024-01-16T06:48:58;1.80;99.90
26803;DHT22;14378;51.796;5.808;2024-01-16T06:50:58;1.80;99.90
26803;DHT22;14378;51.796;5.808;2024-01-16T06:52:59;1.80;99.90
26803;DHT22;14378;51.796;5.808;2024-01-16T06:55:00;1.80;99.90
26803;DHT22;14378;51.796;5.808;2024-01-16T06:57:01;1.90;99.90
26803;DHT22;14378;51.796;5.808;2024-01-16T06:59:02;1.90;99.90
26803;DHT22;14378;51.796;5.808;2024-01-16T07:01:03;1.90;99.90
26803;DHT22;14378;51.796;5.808;2024-01-16T07:03:04;1.90;99.90
26803;DHT22;14378;51.796;5.808;2024-01-16T07:05:05;1.90;99.90
26803;DHT22;14378;51.796;5.808;2024-01-16T07:07:06;1.90;99.90
26803;DHT22;14378;51.796;5.808;2024-01-16T07:09:07;1.90;99.90
26803;DHT22;14378;51.796;5.808;2024-01-16T07:11:11;1.90;99.90
26803;DHT22;14378;51.796;5.808;2024-01-16T07:13:14;1.90;99.90
26803;DHT22;14378;51.796;5.808;2024-01-16T07:15:15;1.90;99.90
26803;DHT22;14378;51.796;5.808;2024-01-16T07:17:16;1.90;99.90
26803;DHT22;14378;51.796;5.808;2024-01-16T07:19:17;1.90;99.90
26803;DHT22;14378;51.796;5.808;2024-01-16T07:21:20;1.80;99.90
26803;DHT22;14378;51.796;5.808;2024-01-16T07:23:21;1.90;99.90
26803;DHT22;14378;51.796;5.808;2024-01-16T07:25:22;1.90;99.90
26803;DHT22;14378;51.796;5.808;2024-01-16T07:27:23;1.90;99.90
26803;DHT22;14378;51.796;5.808;2024-01-16T07:29:24;1.90;99.90
26803;DHT22;14378;51.796;5.808;2024-01-16T07:31:25;1.90;99.90
26803;DHT22;14378;51.796;5.808;2024-01-16T07:33:31;1.90;99.90
26803;DHT22;14378;51.796;5.808;2024-01-16T07:35:31;1.90;99.90
26803;DHT22;14378;51.796;5.808;2024-01-16T07:37:32;1.80;99.90
26803;DHT22;14378;51.796;5.808;2024-01-16T07:39:33;1.80;99.90
26803;DHT22;14378;51.796;5.808;2024-01-16T07:41:35;1.70;99.90
26803;DHT22;14378;51.796;5.808;2024-01-16T07:43:37;1.70;99.90
26803;DHT22;14378;51.796;5.808;2024-01-16T07:45:38;1.70;99.90
26803;DHT22;14378;51.796;5.808;2024-01-16T07:47:39;1.70;99.90
26803;DHT22;14378;51.796;5.808;2024-01-16T07:49:40;1.60;99.90
26803;DHT22;14378;51.796;5.808;2024-01-16T07:51:41;1.60;99.90
26803;DHT22;14378;51.796;5.808;2024-01-16T07:53:41;1.60;99.90
26803;DHT22;14378;51.796;5.808;2024-01-16T07:55:43;1.60;99.90
26803;DHT22;14378;51.796;5.808;2024-01-16T07:57:44;1.60;99.90
26803;DHT22;14378;51.796;5.808;2024-01-16T07:59:45;1.50;99.90
26803;DHT22;14378;51.796;5.808;2024-01-16T08:01:46;1.50;99.90
26803;DHT22;14378;51.796;5.808;2024-01-16T08:03:46;1.50;99.90
26803;DHT22;14378;51.796;5.808;2024-01-16T08:05:47;1.40;99.90
26803;DHT22;14378;51.796;5.808;2024-01-16T08:07:48;1.40;99.90
26803;DHT22;14378;51.796;5.808;2024-01-16T08:09:49;1.50;99.90
26803;DHT22;14378;51.796;5.808;2024-01-16T08:11:50;1.40;99.90
26803;DHT22;14378;51.796;5.808;2024-01-16T08:13:50;1.40;99.90
26803;DHT22;14378;51.796;5.808;2024-01-16T08:15:51;1.40;99.90
26803;DHT22;14378;51.796;5.808;2024-01-16T08:17:52;1.40;99.90
26803;DHT22;14378;51.796;5.808;2024-01-16T08:19:54;1.40;99.90
26803;DHT22;14378;51.796;5.808;2024-01-16T08:22:01;1.40;99.90
26803;DHT22;14378;51.796;5.808;2024-01-16T08:24:05;1.40;99.90
26803;DHT22;14378;51.796;5.808;2024-01-16T08:26:06;1.40;99.90
26803;DHT22;14378;51.796;5.808;2024-01-16T08:28:07;1.40;99.90
26803;DHT22;14378;51.796;5.808;2024-01-16T08:30:08;1.40;99.90
26803;DHT22;14378;51.796;5.808;2024-01-16T08:32:09;1.40;99.90
26803;DHT22;14378;51.796;5.808;2024-01-16T08:34:10;1.40;99.90
26803;DHT22;14378;51.796;5.808;2024-01-16T08:36:11;1.40;99.90
26803;DHT22;14378;51.796;5.808;2024-01-16T08:38:12;1.40;99.90
26803;DHT22;14378;51.796;5.808;2024-01-16T08:40:13;1.40;99.90
26803;DHT22;14378;51.796;5.808;2024-01-16T08:42:14;1.40;99.90
26803;DHT22;14378;51.796;5.808;2024-01-16T08:44:15;1.40;99.90
26803;DHT22;14378;51.796;5.808;2024-01-16T08:46:16;1.40;99.90
26803;DHT22;14378;51.796;5.808;2024-01-16T08:48:16;1.40;99.90
26803;DHT22;14378;51.796;5.808;2024-01-16T08:50:17;1.40;99.90
26803;DHT22;14378;51.796;5.808;2024-01-16T08:52:18;1.50;99.90
26803;DHT22;14378;51.796;5.808;2024-01-16T08:54:19;1.50;99.90
26803;DHT22;14378;51.796;5.808;2024-01-16T08:56:23;1.50;99.90
26803;DHT22;14378;51.796;5.808;2024-01-16T08:58:24;1.50;99.90
26803;DHT22;14378;51.796;5.808;2024-01-16T09:00:25;1.40;99.90
26803;DHT22;14378;51.796;5.808;2024-01-16T09:02:26;1.40;99.90
26803;DHT22;14378;51.796;5.808;2024-01-16T09:04:31;1.50;99.90
26803;DHT22;14378;51.796;5.808;2024-01-16T09:06:32;1.50;99.90
26803;DHT22;14378;51.796;5.808;2024-01-16T09:08:32;1.40;99.90
26803;DHT22;14378;51.796;5.808;2024-01-16T09:10:33;1.40;99.90
26803;DHT22;14378;51.796;5.808;2024-01-16T09:12:34;1.40;99.90
26803;DHT22;14378;51.796;5.808;2024-01-16T09:14:35;1.50;99.90
26803;DHT22;14378;51.796;5.808;2024-01-16T09:16:39;1.40;99.90
26803;DHT22;14378;51.796;5.808;2024-01-16T09:18:41;1.50;99.90
26803;DHT22;14378;51.796;5.808;2024-01-16T09:20:43;1.50;99.90
26803;DHT22;14378;51.796;5.808;2024-01-16T09:22:44;1.50;99.90
26803;DHT22;14378;51.796;5.808;2024-01-16T09:24:45;1.50;99.90
26803;DHT22;14378;51.796;5.808;2024-01-16T09:26:46;1.50;99.90
26803;DHT22;14378;51.796;5.808;2024-01-16T09:28:51;1.50;99.90
26803;DHT22;14378;51.796;5.808;2024-01-16T09:30:52;1.50;99.90
26803;DHT22;14378;51.796;5.808;2024-01-16T09:32:56;1.50;99.90
26803;DHT22;14378;51.796;5.808;2024-01-16T09:34:57;1.50;99.90
26803;DHT22;14378;51.796;5.808;2024-01-16T09:36:59;1.50;99.90
26803;DHT22;14378;51.796;5.808;2024-01-16T09:39:05;1.50;99.90
26803;DHT22;14378;51.796;5.808;2024-01-16T09:41:10;1.50;99.90
26803;DHT22;14378;51.796;5.808;2024-01-16T09:43:11;1.50;99.90
26803;DHT22;14378;51.796;5.808;2024-01-16T09:45:15;1.50;99.90
26803;DHT22;14378;51.796;5.808;2024-01-16T09:47:24;1.50;99.90
26803;DHT22;14378;51.796;5.808;2024-01-16T09:49:25;1.50;99.90
26803;DHT22;14378;51.796;5.808;2024-01-16T09:51:26;1.60;99.90
26803;DHT22;14378;51.796;5.808;2024-01-16T09:53:27;1.50;99.90
26803;DHT22;14378;51.796;5.808;2024-01-16T09:55:28;1.50;99.90
26803;DHT22;14378;51.796;5.808;2024-01-16T09:57:30;1.50;99.90
26803;DHT22;14378;51.796;5.808;2024-01-16T09:59:33;1.50;99.90
26803;DHT22;14378;51.796;5.808;2024-01-16T10:01:37;1.50;99.90
26803;DHT22;14378;51.796;5.808;2024-01-16T10:03:38;1.50;99.90
26803;DHT22;14378;51.796;5.808;2024-01-16T10:05:42;1.50;99.90
26803;DHT22;14378;51.796;5.808;2024-01-16T10:07:43;1.60;99.90
26803;DHT22;14378;51.796;5.808;2024-01-16T10:09:44;1.60;99.90
26803;DHT22;14378;51.796;5.808;2024-01-16T10:11:45;1.60;99.90
26803;DHT22;14378;51.796;5.808;2024-01-16T10:13:47;1.60;99.90
26803;DHT22;14378;51.796;5.808;2024-01-16T10:15:52;1.70;99.90
26803;DHT22;14378;51.796;5.808;2024-01-16T10:17:56;1.80;99.90
26803;DHT22;14378;51.796;5.808;2024-01-16T10:20:07;1.80;99.90
26803;DHT22;14378;51.796;5.808;2024-01-16T10:22:14;1.90;99.90
26803;DHT22;14378;51.796;5.808;2024-01-16T10:24:20;1.90;99.90
26803;DHT22;14378;51.796;5.808;2024-01-16T10:26:21;2.00;99.90
26803;DHT22;14378;51.796;5.808;2024-01-16T10:28:22;2.10;99.90
26803;DHT22;14378;51.796;5.808;2024-01-16T10:30:28;2.20;99.90
26803;DHT22;14378;51.796;5.808;2024-01-16T10:32:36;2.20;99.90
26803;DHT22;14378;51.796;5.808;2024-01-16T10:34:38;2.20;99.90
26803;DHT22;14378;51.796;5.808;2024-01-16T10:36:39;2.20;99.90
26803;DHT22;14378;51.796;5.808;2024-01-16T10:38:44;2.30;99.90
26803;DHT22;14378;51.796;5.808;2024-01-16T10:40:45;2.30;99.90
26803;DHT22;14378;51.796;5.808;2024-01-16T10:43:07;2.40;99.90
26803;DHT22;14378;51.796;5.808;2024-01-16T10:45:08;2.50;99.90
26803;DHT22;14378;51.796;5.808;2024-01-16T10:47:12;2.60;99.90
26803;DHT22;14378;51.796;5.808;2024-01-16T10:49:18;2.70;99.90
26803;DHT22;14378;51.796;5.808;2024-01-16T10:51:20;2.60;99.90
26803;DHT22;14378;51.796;5.808;2024-01-16T10:53:22;2.60;99.90
26803;DHT22;14378;51.796;5.808;2024-01-16T10:55:28;2.50;99.90
26803;DHT22;14378;51.796;5.808;2024-01-16T10:57:31;2.40;99.90
26803;DHT22;14378;51.796;5.808;2024-01-16T10:59:42;2.50;99.90
26803;DHT22;14378;51.796;5.808;2024-01-16T11:01:53;2.50;99.90
26803;DHT22;14378;51.796;5.808;2024-01-16T11:03:56;2.70;99.90
26803;DHT22;14378;51.796;5.808;2024-01-16T11:06:00;2.70;99.90
26803;DHT22;14378;51.796;5.808;2024-01-16T11:08:03;2.90;99.90
26803;DHT22;14378;51.796;5.808;2024-01-16T11:10:07;3.00;99.90
26803;DHT22;14378;51.796;5.808;2024-01-16T11:12:09;3.00;99.90
26803;DHT22;14378;51.796;5.808;2024-01-16T11:14:20;3.10;99.90
26803;DHT22;14378;51.796;5.808;2024-01-16T11:16:23;3.20;99.90
26803;DHT22;14378;51.796;5.808;2024-01-16T11:18:27;3.30;99.90
26803;DHT22;14378;51.796;5.808;2024-01-16T11:20:32;3.50;99.90
26803;DHT22;14378;51.796;5.808;2024-01-16T11:22:38;3.60;99.90
26803;DHT22;14378;51.796;5.808;2024-01-16T11:24:39;3.70;99.90
26803;DHT22;14378;51.796;5.808;2024-01-16T11:26:47;3.70;99.90
26803;DHT22;14378;51.796;5.808;2024-01-16T11:28:51;3.80;99.90
26803;DHT22;14378;51.796;5.808;2024-01-16T11:30:52;3.90;99.90
26803;DHT22;14378;51.796;5.808;2024-01-16T11:32:53;3.90;99.90
26803;DHT22;14378;51.796;5.808;2024-01-16T11:34:54;3.90;99.90
26803;DHT22;14378;51.796;5.808;2024-01-16T11:36:56;3.90;99.90
26803;DHT22;14378;51.796;5.808;2024-01-16T11:38:57;4.00;99.90
26803;DHT22;14378;51.796;5.808;2024-01-16T11:41:01;4.20;99.90
26803;DHT22;14378;51.796;5.808;2024-01-16T11:47:32;4.50;99.90
26803;DHT22;14378;51.796;5.808;2024-01-16T11:49:39;4.50;99.90
26803;DHT22;14378;51.796;5.808;2024-01-16T11:51:41;4.40;99.90
26803;DHT22;14378;51.796;5.808;2024-01-16T11:53:43;4.50;99.90
26803;DHT22;14378;51.796;5.808;2024-01-16T11:58:41;4.60;99.90
26803;DHT22;14378;51.796;5.808;2024-01-16T12:00:47;4.60;99.90
26803;DHT22;14378;51.796;5.808;2024-01-16T12:03:03;4.50;99.90
26803;DHT22;14378;51.796;5.808;2024-01-16T12:05:04;4.50;99.90
26803;DHT22;14378;51.796;5.808;2024-01-16T12:07:08;4.60;99.90
26803;DHT22;14378;51.796;5.808;2024-01-16T12:09:17;4.70;99.90
26803;DHT22;14378;51.796;5.808;2024-01-16T12:11:21;4.90;99.90
26803;DHT22;14378;51.796;5.808;2024-01-16T12:13:22;5.10;99.90
26803;DHT22;14378;51.796;5.808;2024-01-16T12:15:23;5.20;99.90
26803;DHT22;14378;51.796;5.808;2024-01-16T12:17:24;5.20;99.90
26803;DHT22;14378;51.796;5.808;2024-01-16T12:19:27;5.30;99.90
26803;DHT22;14378;51.796;5.808;2024-01-16T12:21:28;5.40;99.90
26803;DHT22;14378;51.796;5.808;2024-01-16T12:23:29;5.30;99.90
26803;DHT22;14378;51.796;5.808;2024-01-16T12:25:32;5.40;99.90
26803;DHT22;14378;51.796;5.808;2024-01-16T12:27:34;5.30;99.90
26803;DHT22;14378;51.796;5.808;2024-01-16T12:29:35;5.20;99.90
26803;DHT22;14378;51.796;5.808;2024-01-16T12:31:36;5.20;99.90
26803;DHT22;14378;51.796;5.808;2024-01-16T12:33:37;5.30;99.90
26803;DHT22;14378;51.796;5.808;2024-01-16T12:35:40;5.30;99.90
26803;DHT22;14378;51.796;5.808;2024-01-16T12:37:41;5.30;99.90
26803;DHT22;14378;51.796;5.808;2024-01-16T12:39:42;5.50;99.90
26803;DHT22;14378;51.796;5.808;2024-01-16T12:41:45;5.60;99.90
26803;DHT22;14378;51.796;5.808;2024-01-16T12:43:50;5.80;99.90
26803;DHT22;14378;51.796;5.808;2024-01-16T12:45:55;5.90;99.90
26803;DHT22;14378;51.796;5.808;2024-01-16T12:47:59;6.00;99.90
26803;DHT22;14378;51.796;5.808;2024-01-16T12:49:59;6.10;99.90
26803;DHT22;14378;51.796;5.808;2024-01-16T12:52:20;6.10;99.90
26803;DHT22;14378;51.796;5.808;2024-01-16T12:54:21;6.10;99.90
26803;DHT22;14378;51.796;5.808;2024-01-16T12:56:24;6.10;99.90
26803;DHT22;14378;51.796;5.808;2024-01-16T12:58:26;6.10;99.90
26803;DHT22;14378;51.796;5.808;2024-01-16T13:00:32;6.20;99.90
26803;DHT22;14378;51.796;5.808;2024-01-16T13:02:33;6.40;99.90
26803;DHT22;14378;51.796;5.808;2024-01-16T13:04:34;6.20;99.90
26803;DHT22;14378;51.796;5.808;2024-01-16T13:06:35;6.10;99.90
26803;DHT22;14378;51.796;5.808;2024-01-16T13:08:36;5.90;99.90
26803;DHT22;14378;51.796;5.808;2024-01-16T13:10:37;5.80;99.90
26803;DHT22;14378;51.796;5.808;2024-01-16T13:12:39;5.60;99.90